createdAt,value
2019-03-22T00:02:06.657Z,103273.42
2019-03-22T00:04:36.015Z,103272.47
2019-03-22T00:07:05.483Z,103269.91
2019-03-22T00:09:35.040Z,103268.63
2019-03-22T00:12:04.544Z,103265.05
2019-03-22T00:14:33.868Z,103264.71
2019-03-22T00:17:03.447Z,103262.11
2019-03-22T00:19:34.269Z,103256.35
2019-03-22T00:22:03.915Z,103252.20
2019-03-22T00:24:33.299Z,103250.77
2019-03-22T00:27:02.852Z,103248.53
2019-03-22T00:29:32.245Z,103251.55
2019-03-22T00:32:01.807Z,103250.72
2019-03-22T00:34:31.229Z,103248.16
2019-03-22T00:37:00.910Z,103247.82
2019-03-22T00:39:30.484Z,103249.14
2019-03-22T00:41:59.990Z,103251.59
2019-03-22T00:44:29.458Z,103246.47
2019-03-22T00:47:00.314Z,103239.08
2019-03-22T00:49:29.777Z,103239.38
2019-03-22T00:51:59.208Z,103237.65
2019-03-22T00:54:28.575Z,103241.50
2019-03-22T00:56:59.551Z,103236.97
2019-03-22T00:59:28.881Z,103244.09
2019-03-22T01:01:58.258Z,103245.34
2019-03-22T01:04:27.635Z,103249.19
2019-03-22T01:17:45.399Z,103263.63
2019-03-22T01:20:15.152Z,103258.05
2019-03-22T01:22:44.635Z,103261.21
2019-03-22T01:25:14.123Z,103265.89
2019-03-22T01:27:43.592Z,103270.37
2019-03-22T01:30:13.543Z,103272.14
2019-03-22T01:32:42.922Z,103267.70
2019-03-22T01:35:12.601Z,103263.32
2019-03-22T01:37:41.974Z,103262.76
2019-03-22T01:40:11.662Z,103260.87
2019-03-22T01:42:41.053Z,103255.48
2019-03-22T01:45:11.213Z,103243.03
2019-03-22T01:47:40.589Z,103246.20
2019-03-22T01:50:11.654Z,103237.84
2019-03-22T01:52:41.378Z,103239.38
2019-03-22T01:55:11.461Z,103240.55
2019-03-22T01:57:51.935Z,103237.95
2019-03-22T02:00:12.560Z,103242.32
2019-03-22T02:02:41.921Z,103246.73
2019-03-22T02:05:11.767Z,103249.91
2019-03-22T02:07:41.259Z,103246.20
2019-03-22T02:10:11.710Z,103245.94
2019-03-22T02:12:42.230Z,103241.98
2019-03-22T02:15:13.405Z,103244.17
2019-03-22T02:17:43.261Z,103248.20
2019-03-22T02:20:13.090Z,103255.52
2019-03-22T02:22:42.617Z,103253.37
2019-03-22T02:25:12.327Z,103247.26
2019-03-22T02:27:41.900Z,103244.55
2019-03-22T02:30:11.566Z,103237.16
2019-03-22T02:32:41.031Z,103238.89
2019-03-22T02:35:26.990Z,103240.59
2019-03-22T02:37:42.314Z,103242.81
2019-03-22T02:40:12.673Z,103242.44
2019-03-22T02:42:42.002Z,103247.79
2019-03-22T02:45:11.740Z,103242.89
2019-03-22T02:47:41.259Z,103240.66
2019-03-22T02:50:17.887Z,103252.34
2019-03-22T02:52:42.575Z,103245.68
2019-03-22T02:55:12.301Z,103247.86
2019-03-22T02:57:41.722Z,103241.98
2019-03-22T03:00:11.776Z,103247.26
2019-03-22T03:02:41.412Z,103242.09
2019-03-22T03:05:11.357Z,103235.91
2019-03-22T03:07:40.741Z,103239.87
2019-03-22T03:10:11.092Z,103239.80
2019-03-22T03:12:40.453Z,103229.39
2019-03-22T03:15:11.053Z,103229.73
2019-03-22T03:17:40.574Z,103233.77
2019-03-22T03:20:12.899Z,103226.68
2019-03-22T03:22:42.280Z,103219.63
2019-03-22T03:25:12.332Z,103222.30
2019-03-22T03:27:41.848Z,103220.61
2019-03-22T03:36:19.086Z,103225.06
2019-03-22T03:38:48.428Z,103228.30
2019-03-22T03:41:17.863Z,103233.13
2019-03-22T03:43:47.321Z,103227.95
2019-03-22T03:46:16.729Z,103225.55
2019-03-22T03:48:46.165Z,103221.36
2019-03-22T03:51:15.631Z,103214.77
2019-03-22T03:53:45.105Z,103212.84
2019-03-22T03:56:14.557Z,103216.31
2019-03-22T03:58:52.213Z,103219.44
2019-03-22T04:01:15.555Z,103222.49
2019-03-22T04:03:44.917Z,103214.99
2019-03-22T04:06:14.290Z,103217.33
2019-03-22T04:08:43.737Z,103217.67
2019-03-22T04:11:13.206Z,103221.10
2019-03-22T04:13:42.686Z,103222.83
2019-03-22T04:16:12.078Z,103221.59
2019-03-22T04:18:41.588Z,103225.55
2019-03-22T04:21:11.103Z,103220.30
2019-03-22T04:23:40.645Z,103224.00
2019-03-22T04:26:10.040Z,103224.45
2019-03-22T04:28:39.588Z,103241.17
2019-03-22T04:31:09.140Z,103251.52
2019-03-22T04:33:39.031Z,103252.77
2019-03-22T04:36:08.418Z,103256.83
2019-03-22T04:38:37.831Z,103254.56
2019-03-22T04:41:07.333Z,103252.83
2019-03-22T04:43:37.810Z,103260.30
2019-03-22T04:46:08.176Z,103257.77
2019-03-22T04:48:38.931Z,103259.02
2019-03-22T04:51:09.591Z,103258.91
2019-03-22T04:53:44.256Z,103266.52
2019-03-22T04:56:16.714Z,103267.45
2019-03-22T04:58:49.156Z,103268.84
2019-03-22T05:01:20.364Z,103277.52
2019-03-22T05:03:50.159Z,103278.45
2019-03-22T05:06:21.761Z,103280.16
2019-03-22T05:08:52.847Z,103280.95
2019-03-22T05:11:23.220Z,103281.82
2019-03-22T05:13:56.231Z,103280.12
2019-03-22T05:16:26.753Z,103277.03
2019-03-22T05:18:57.484Z,103283.38
2019-03-22T05:21:28.701Z,103288.17
2019-03-22T05:24:00.280Z,103293.73
2019-03-22T05:26:32.390Z,103286.64
2019-03-22T05:29:02.355Z,103294.28
2019-03-22T05:32:10.219Z,103295.64
2019-03-22T05:34:39.625Z,103293.10
2019-03-22T05:37:09.309Z,103296.05
2019-03-22T05:39:41.079Z,103289.42
2019-03-22T05:42:12.507Z,103302.55
2019-03-22T05:44:41.926Z,103303.41
2019-03-22T05:47:11.514Z,103302.44
2019-03-22T05:49:41.092Z,103312.95
2019-03-22T05:52:10.678Z,103319.55
2019-03-22T05:54:40.021Z,103316.47
2019-03-22T05:57:13.606Z,103320.01
2019-03-22T05:59:42.680Z,103322.68
2019-03-22T06:02:12.084Z,103331.02
2019-03-22T06:04:41.617Z,103338.52
2019-03-22T06:07:11.200Z,103340.31
2019-03-22T06:09:41.783Z,103337.71
2019-03-22T06:12:11.207Z,103315.04
2019-03-22T06:14:40.796Z,103336.84
2019-03-22T06:17:10.286Z,103343.79
2019-03-22T06:19:42.354Z,103333.69
2019-03-22T06:22:36.526Z,103331.95
2019-03-22T06:25:06.269Z,103336.36
2019-03-22T06:27:35.811Z,103328.92
2019-03-22T06:30:07.641Z,103328.48
2019-03-22T06:32:37.229Z,103320.91
2019-03-22T06:35:07.055Z,103323.97
2019-03-22T06:37:36.560Z,103324.84
2019-03-22T06:40:06.552Z,103320.53
2019-03-22T06:42:35.951Z,103313.52
2019-03-22T06:45:06.003Z,103313.00
2019-03-22T06:47:35.652Z,103311.70
2019-03-22T06:50:05.930Z,103311.39
2019-03-22T06:52:35.531Z,103313.97
2019-03-22T06:55:06.414Z,103302.55
2019-03-22T06:57:35.973Z,103302.41
2019-03-22T07:00:07.413Z,103302.48
2019-03-22T07:02:37.050Z,103305.01
2019-03-22T07:05:07.049Z,103304.70
2019-03-22T07:07:36.906Z,103307.38
2019-03-22T07:10:06.721Z,103310.39
2019-03-22T07:12:36.203Z,103308.59
2019-03-22T07:15:06.374Z,103315.67
2019-03-22T07:17:35.817Z,103312.06
2019-03-22T07:20:06.016Z,103312.95
2019-03-22T07:22:35.420Z,103311.30
2019-03-22T07:25:05.397Z,103312.20
2019-03-22T07:27:34.888Z,103309.55
2019-03-22T07:30:04.853Z,103310.01
2019-03-22T07:32:34.373Z,103311.33
2019-03-22T07:35:03.999Z,103318.41
2019-03-22T07:37:33.327Z,103317.55
2019-03-22T07:40:02.699Z,103318.30
2019-03-22T07:42:32.536Z,103308.27
2019-03-22T07:45:01.967Z,103307.92
2019-03-22T07:47:31.384Z,103306.12
2019-03-22T07:50:01.089Z,103318.09
2019-03-22T07:52:30.544Z,103318.09
2019-03-22T07:55:00.152Z,103315.28
2019-03-22T07:57:29.802Z,103308.23
2019-03-22T07:59:59.170Z,103299.56
2019-03-22T08:02:28.651Z,103293.41
2019-03-22T08:04:58.309Z,103304.70
2019-03-22T08:07:27.809Z,103303.86
2019-03-22T08:09:57.385Z,103303.31
2019-03-22T08:12:29.162Z,103298.69
2019-03-22T08:14:58.532Z,103300.77
2019-03-22T08:17:28.089Z,103300.73
2019-03-22T08:19:57.637Z,103301.64
2019-03-22T08:22:27.209Z,103296.50
2019-03-22T08:24:56.544Z,103298.20
2019-03-22T08:27:25.940Z,103296.22
2019-03-22T08:29:55.316Z,103294.49
2019-03-22T08:32:24.727Z,103291.99
2019-03-22T08:34:54.247Z,103293.59
2019-03-22T08:37:23.665Z,103297.20
2019-03-22T08:39:55.799Z,103292.20
2019-03-22T08:42:25.824Z,103292.05
2019-03-22T08:44:55.216Z,103284.55
2019-03-22T08:47:33.678Z,103283.61
2019-03-22T08:49:56.130Z,103283.87
2019-03-22T08:52:25.458Z,103285.19
2019-03-22T08:54:54.776Z,103288.70
2019-03-22T08:57:25.206Z,103286.52
2019-03-22T08:59:54.704Z,103279.39
2019-03-22T09:02:24.149Z,103284.17
2019-03-22T09:04:53.646Z,103287.80
2019-03-22T09:07:24.411Z,103283.46
2019-03-22T09:09:54.143Z,103280.70
2019-03-22T09:12:23.632Z,103271.34
2019-03-22T09:14:52.944Z,103273.13
2019-03-22T09:17:22.322Z,103265.89
2019-03-22T09:19:51.780Z,103278.97
2019-03-22T09:22:21.099Z,103268.70
2019-03-22T09:24:50.478Z,103268.22
2019-03-22T09:27:22.313Z,103265.00
2019-03-22T09:29:51.842Z,103261.16
2019-03-22T09:32:21.509Z,103267.53
2019-03-22T09:34:50.845Z,103269.46
2019-03-22T09:37:20.224Z,103263.52
2019-03-22T09:39:49.734Z,103262.73
2019-03-22T09:42:19.070Z,103258.73
2019-03-22T09:44:48.707Z,103255.23
2019-03-22T09:47:18.524Z,103255.23
2019-03-22T09:49:51.021Z,103248.59
2019-03-22T09:52:19.224Z,103245.36
2019-03-22T09:54:48.564Z,103247.44
2019-03-22T09:57:17.979Z,103252.42
2019-03-22T09:59:47.456Z,103249.63
2019-03-22T10:02:17.010Z,103246.48
2019-03-22T10:04:49.388Z,103246.98
2019-03-22T10:07:18.887Z,103240.03
2019-03-22T10:09:48.233Z,103225.86
2019-03-22T10:12:17.616Z,103228.19
2019-03-22T10:14:47.288Z,103225.38
2019-03-22T10:17:17.069Z,103222.32
2019-03-22T10:19:46.633Z,103214.62
2019-03-22T10:22:16.015Z,103204.14
2019-03-22T10:24:45.668Z,103205.55
2019-03-22T10:27:15.432Z,103205.05
2019-03-22T10:29:44.895Z,103207.13
2019-03-22T10:32:14.262Z,103211.02
2019-03-22T10:34:43.818Z,103205.30
2019-03-22T10:37:13.490Z,103204.38
2019-03-22T10:39:42.991Z,103192.33
2019-03-22T10:42:12.601Z,103195.49
2019-03-22T10:44:42.658Z,103192.75
2019-03-22T10:47:12.428Z,103189.95
2019-03-22T10:49:42.345Z,103192.60
2019-03-22T10:52:11.847Z,103189.64
2019-03-22T10:54:41.391Z,103174.25
2019-03-22T10:57:11.424Z,103168.64
2019-03-22T10:59:41.069Z,103163.61
2019-03-22T11:02:10.640Z,103166.44
2019-03-22T11:04:40.212Z,103159.36
2019-03-22T11:07:10.143Z,103155.06
2019-03-22T11:09:39.601Z,103153.13
2019-03-22T11:12:12.420Z,103148.20
2019-03-22T11:15:01.419Z,103126.31
2019-03-22T11:17:31.420Z,103146.23
2019-03-22T11:20:00.917Z,103139.56
2019-03-22T11:22:30.474Z,103128.58
2019-03-22T11:25:00.279Z,103125.18
2019-03-22T11:27:30.041Z,103130.88
2019-03-22T11:29:59.527Z,103125.70
2019-03-22T11:32:29.074Z,103128.34
2019-03-22T11:34:58.779Z,103121.16
2019-03-22T11:37:28.447Z,103116.56
2019-03-22T11:39:58.487Z,103119.19
2019-03-22T11:42:28.115Z,103125.05
2019-03-22T11:45:00.649Z,103123.48
2019-03-22T11:47:30.239Z,103123.89
2019-03-22T11:49:59.737Z,103111.67
2019-03-22T11:52:30.039Z,103108.58
2019-03-22T11:54:59.499Z,103101.02
2019-03-22T11:57:29.142Z,103101.25
2019-03-22T11:59:58.681Z,103096.31
2019-03-22T12:02:30.119Z,103094.84
2019-03-22T12:04:59.281Z,103090.61
2019-03-22T12:07:30.290Z,103085.97
2019-03-22T12:10:05.637Z,103087.00
2019-03-22T12:12:44.370Z,103082.66
2019-03-22T12:15:16.535Z,103090.87
2019-03-22T12:17:46.278Z,103086.72
2019-03-22T12:20:17.384Z,103082.91
2019-03-22T12:22:46.968Z,103078.28
2019-03-22T12:25:17.527Z,103072.59
2019-03-22T12:27:48.481Z,103071.27
2019-03-22T12:30:18.371Z,103056.49
2019-03-22T12:32:47.871Z,103055.97
2019-03-22T12:35:17.909Z,103053.87
2019-03-22T12:37:47.683Z,103051.62
2019-03-22T12:40:18.779Z,103042.44
2019-03-22T12:42:48.999Z,103034.47
2019-03-22T12:45:23.073Z,103038.33
2019-03-22T12:47:52.596Z,103028.56
2019-03-22T12:50:22.889Z,103024.36
2019-03-22T12:52:53.901Z,103015.41
2019-03-22T12:55:23.477Z,103017.94
2019-03-22T12:57:53.074Z,103008.02
2019-03-22T13:00:22.799Z,103007.74
2019-03-22T13:02:52.691Z,103005.36
2019-03-22T13:05:23.037Z,103010.13
2019-03-22T13:07:52.713Z,103000.70
2019-03-22T13:10:23.560Z,102998.16
2019-03-22T13:12:53.005Z,102989.63
2019-03-22T13:15:22.817Z,102980.70
2019-03-22T13:17:52.367Z,102980.33
2019-03-22T13:20:26.878Z,102981.85
2019-03-22T13:22:56.221Z,102981.85
2019-03-22T13:25:43.196Z,102978.09
2019-03-22T13:28:13.636Z,102956.70
2019-03-22T13:30:43.029Z,102966.80
2019-03-22T13:33:12.424Z,102954.80
2019-03-22T13:35:41.992Z,102958.25
2019-03-22T13:38:14.659Z,102948.55
2019-03-22T13:40:44.184Z,102938.02
2019-03-22T13:43:15.896Z,102936.79
2019-03-22T13:46:01.133Z,102933.84
2019-03-22T13:48:30.489Z,102928.52
2019-03-22T13:51:00.143Z,102916.76
2019-03-22T13:53:29.824Z,102925.98
2019-03-22T13:56:02.959Z,102911.17
2019-03-22T13:58:35.034Z,102909.53
2019-03-22T14:01:06.456Z,102906.16
2019-03-22T14:03:35.855Z,102906.57
2019-03-22T14:06:10.361Z,102897.31
2019-03-22T14:08:39.898Z,102894.41
2019-03-22T14:11:09.380Z,102894.63
2019-03-22T14:13:39.796Z,102880.30
2019-03-22T14:16:11.874Z,102881.86
2019-03-22T14:18:41.379Z,102881.75
2019-03-22T14:21:14.037Z,102877.13
2019-03-22T14:23:45.629Z,102873.97
2019-03-22T14:26:15.055Z,102866.20
2019-03-22T14:28:44.433Z,102862.67
2019-03-22T14:31:13.777Z,102861.32
2019-03-22T14:33:43.183Z,102870.59
2019-03-22T14:36:12.639Z,102860.07
2019-03-22T14:38:44.194Z,102845.11
2019-03-22T14:41:13.276Z,102844.81
2019-03-22T14:43:43.171Z,102834.61
2019-03-22T14:46:12.654Z,102834.46
2019-03-22T14:48:42.101Z,102839.05
2019-03-22T14:51:11.615Z,102828.14
2019-03-22T14:54:26.873Z,102824.75
2019-03-22T14:56:58.615Z,102811.05
2019-03-22T14:59:28.063Z,102808.28
2019-03-22T15:01:57.642Z,102807.62
2019-03-22T15:04:27.002Z,102803.14
2019-03-22T15:06:56.389Z,102788.33
2019-03-22T15:09:26.098Z,102785.59
2019-03-22T15:11:55.564Z,102778.48
2019-03-22T15:14:42.630Z,102771.33
2019-03-22T15:17:22.913Z,102775.20
2019-03-22T15:20:10.101Z,102765.83
2019-03-22T15:23:04.295Z,102757.83
2019-03-22T15:25:52.688Z,102751.51
2019-03-22T15:28:35.686Z,102749.54
2019-03-22T15:31:30.193Z,102749.19
2019-03-22T15:34:07.252Z,102739.81
2019-03-22T15:36:54.780Z,102734.86
2019-03-22T15:39:43.489Z,102734.72
2019-03-22T15:42:13.257Z,102736.59
2019-03-22T15:44:42.709Z,102733.56
2019-03-22T15:47:12.197Z,102721.34
2019-03-22T15:49:41.770Z,102719.21
2019-03-22T15:52:11.190Z,102717.27
2019-03-22T15:54:43.507Z,102713.88
2019-03-22T15:57:13.104Z,102707.44
2019-03-22T15:59:42.583Z,102702.59
2019-03-22T16:02:12.231Z,102710.81
2019-03-22T16:04:41.775Z,102713.98
2019-03-22T16:07:11.199Z,102705.03
2019-03-22T16:09:40.803Z,102689.67
2019-03-22T16:12:10.251Z,102692.62
2019-03-22T16:14:41.975Z,102690.41
2019-03-22T16:17:11.425Z,102687.29
2019-03-22T16:19:41.127Z,102678.29
2019-03-22T16:22:10.526Z,102687.09
2019-03-22T16:24:40.098Z,102673.57
2019-03-22T16:27:09.606Z,102662.65
2019-03-22T16:29:39.028Z,102674.63
2019-03-22T16:32:08.524Z,102667.26
2019-03-22T16:34:38.074Z,102671.44
2019-03-22T16:37:07.541Z,102668.60
2019-03-22T16:39:36.979Z,102669.81
2019-03-22T16:42:06.426Z,102668.66
2019-03-22T16:44:35.874Z,102665.28
2019-03-22T16:47:05.330Z,102667.48
2019-03-22T16:49:34.784Z,102666.72
2019-03-22T16:52:04.390Z,102664.02
2019-03-22T16:54:33.862Z,102661.95
2019-03-22T16:57:03.521Z,102663.41
2019-03-22T16:59:32.876Z,102661.98
2019-03-22T17:02:02.428Z,102667.79
2019-03-22T17:04:32.019Z,102654.00
2019-03-22T17:07:01.373Z,102648.81
2019-03-22T17:09:53.705Z,102654.58
2019-03-22T17:12:36.270Z,102659.33
2019-03-22T17:15:06.056Z,102658.52
2019-03-22T17:17:44.919Z,102657.31
2019-03-22T17:23:16.873Z,102654.59
2019-03-22T17:25:46.284Z,102658.64
2019-03-22T17:28:15.739Z,102654.80
2019-03-22T17:30:45.938Z,102660.22
2019-03-22T17:33:16.023Z,102658.41
2019-03-22T17:35:51.451Z,102661.31
2019-03-22T17:38:21.150Z,102662.12
2019-03-22T17:41:01.431Z,102663.59
2019-03-22T17:43:32.713Z,102661.97
2019-03-22T17:54:02.509Z,102658.13
2019-03-22T17:56:33.569Z,102660.81
2019-03-22T17:59:08.094Z,102662.20
2019-03-22T18:01:44.929Z,102658.91
2019-03-22T18:04:23.700Z,102661.02
2019-03-22T18:06:46.054Z,102660.84
2019-03-22T18:09:15.639Z,102667.77
2019-03-22T18:11:45.094Z,102661.09
2019-03-22T18:14:14.434Z,102669.23
2019-03-22T18:16:44.021Z,102667.75
2019-03-22T18:19:13.535Z,102666.13
2019-03-22T18:21:43.110Z,102668.55
2019-03-22T18:24:12.532Z,102668.15
2019-03-22T18:26:42.190Z,102674.32
2019-03-22T18:29:11.810Z,102671.47
2019-03-22T18:31:41.148Z,102665.89
2019-03-22T18:34:10.584Z,102669.77
2019-03-22T18:36:40.095Z,102667.98
2019-03-22T18:39:10.631Z,102674.84
2019-03-22T18:41:39.996Z,102671.13
2019-03-22T18:44:09.715Z,102669.92
2019-03-22T18:46:39.360Z,102669.53
2019-03-22T18:49:09.085Z,102666.02
2019-03-22T18:51:38.540Z,102667.14
2019-03-22T18:54:08.186Z,102670.20
2019-03-22T18:56:37.760Z,102670.05
2019-03-22T18:59:07.349Z,102669.94
2019-03-22T19:01:36.827Z,102669.21
2019-03-22T19:04:06.315Z,102663.91
2019-03-22T19:06:37.693Z,102661.77
2019-03-22T19:09:08.471Z,102661.92
2019-03-22T19:11:37.969Z,102661.59
2019-03-22T19:14:07.434Z,102663.96
2019-03-22T19:16:36.877Z,102652.17
2019-03-22T19:19:06.350Z,102651.09
2019-03-22T19:21:35.787Z,102657.05
2019-03-22T19:24:05.172Z,102659.55
2019-03-22T19:26:34.618Z,102658.19
2019-03-22T19:29:04.053Z,102659.70
2019-03-22T19:31:33.486Z,102665.64
2019-03-22T19:34:02.857Z,102659.80
2019-03-22T19:36:32.367Z,102648.76
2019-03-22T19:39:01.833Z,102648.76
2019-03-22T19:41:31.278Z,102662.16
2019-03-22T19:44:00.911Z,102659.87
2019-03-22T19:46:30.387Z,102651.70
2019-03-22T19:48:59.862Z,102661.51
2019-03-22T19:51:29.213Z,102649.23
2019-03-22T19:53:58.628Z,102658.86
2019-03-22T19:56:28.117Z,102642.13
2019-03-22T19:58:57.679Z,102656.60
2019-03-22T20:01:27.018Z,102656.60
2019-03-22T20:03:56.501Z,102646.49
2019-03-22T20:06:25.942Z,102650.16
2019-03-22T20:08:55.545Z,102650.16
2019-03-22T20:11:27.450Z,102648.48
2019-03-22T20:13:56.917Z,102637.34
2019-03-22T20:16:26.421Z,102637.34
2019-03-22T20:18:55.858Z,102641.58
2019-03-22T20:21:25.207Z,102647.80
2019-03-22T20:23:54.720Z,102645.78
2019-03-22T20:26:24.287Z,102640.30
2019-03-22T20:28:53.720Z,102640.30
2019-03-22T20:31:23.098Z,102639.23
2019-03-22T20:33:53.116Z,102636.66
2019-03-22T20:36:22.676Z,102638.97
2019-03-22T20:38:52.184Z,102640.23
2019-03-22T20:41:21.573Z,102638.28
2019-03-22T20:43:51.071Z,102634.08
2019-03-22T20:46:20.434Z,102625.34
2019-03-22T20:48:51.492Z,102628.20
2019-03-22T20:51:20.815Z,102633.19
2019-03-22T20:53:50.841Z,102630.31
2019-03-22T20:56:20.412Z,102622.73
2019-03-22T20:58:49.762Z,102625.02
2019-03-22T21:01:19.246Z,102626.08
2019-03-22T21:03:50.151Z,102621.94
2019-03-22T21:06:20.004Z,102619.82
2019-03-22T21:08:49.485Z,102623.09
2019-03-22T21:11:18.827Z,102619.42
2019-03-22T21:13:49.688Z,102619.26
2019-03-22T21:16:19.415Z,102590.66
2019-03-22T21:18:48.807Z,102613.06
2019-03-22T21:21:18.281Z,102613.06
2019-03-22T21:23:47.662Z,102607.23
2019-03-22T21:26:17.236Z,102608.85
2019-03-22T21:28:48.805Z,102610.11
2019-03-22T21:31:18.360Z,102600.74
2019-03-22T21:33:47.792Z,102606.95
2019-03-22T21:36:17.313Z,102601.09
2019-03-22T21:38:46.832Z,102598.54
2019-03-22T21:41:16.255Z,102598.05
2019-03-22T21:43:45.655Z,102590.86
2019-03-22T21:46:15.135Z,102592.24
2019-03-22T21:48:44.615Z,102590.16
2019-03-22T21:51:14.359Z,102588.56
2019-03-22T21:53:43.718Z,102582.74
2019-03-22T21:56:13.254Z,102580.31
2019-03-22T21:58:42.735Z,102586.49
2019-03-22T22:01:12.160Z,102573.48
2019-03-22T22:03:42.781Z,102569.92
2019-03-22T22:06:13.436Z,102558.27
2019-03-22T22:08:42.976Z,102556.12
2019-03-22T22:11:12.353Z,102551.66
2019-03-22T22:13:42.231Z,102548.00
2019-03-22T22:16:11.895Z,102545.14
2019-03-22T22:18:41.549Z,102543.82
2019-03-22T22:21:12.157Z,102541.12
2019-03-22T22:23:41.620Z,102540.32
2019-03-22T22:26:21.009Z,102537.77
2019-03-22T22:28:50.454Z,102531.68
2019-03-22T22:32:21.114Z,102530.57
2019-03-22T22:34:50.487Z,102522.83
2019-03-22T22:37:20.683Z,102514.96
2019-03-22T22:39:50.322Z,102518.00
2019-03-22T22:42:19.995Z,102520.73
2019-03-22T22:44:50.794Z,102512.53
2019-03-22T22:47:20.621Z,102509.03
2019-03-22T22:49:50.395Z,102508.37
2019-03-22T22:52:19.987Z,102499.38
2019-03-22T22:54:49.523Z,102507.34
2019-03-22T22:57:19.216Z,102502.48
2019-03-22T22:59:48.631Z,102495.35
2019-03-22T23:02:18.069Z,102488.16
2019-03-22T23:04:47.604Z,102488.83
2019-03-22T23:07:17.051Z,102491.14
2019-03-22T23:09:46.483Z,102492.64
2019-03-22T23:12:15.968Z,102494.77
2019-03-22T23:14:45.498Z,102486.56
2019-03-22T23:17:14.937Z,102488.68
2019-03-22T23:19:44.301Z,102484.13
2019-03-22T23:22:13.922Z,102472.14
2019-03-22T23:24:44.605Z,102482.38
2019-03-22T23:27:14.253Z,102489.10
2019-03-22T23:29:43.735Z,102483.08
2019-03-22T23:32:13.224Z,102482.23
2019-03-22T23:34:42.595Z,102477.00
2019-03-22T23:37:12.065Z,102477.86
2019-03-22T23:39:41.578Z,102479.59
2019-03-22T23:42:10.989Z,102475.60
2019-03-22T23:44:40.376Z,102475.41
2019-03-22T23:47:09.919Z,102476.26
2019-03-22T23:49:39.368Z,102474.88
2019-03-22T23:52:08.774Z,102473.56
2019-03-22T23:54:38.267Z,102471.69
2019-03-22T23:57:07.668Z,102467.92
2019-03-22T23:59:37.266Z,102461.44
